• Join FlightAware (Why Join?)
  • Login
  • US Flag 
03:40AM EDT


 

Airport Tracker/Info


-or-


 

Live Flight TrackerFlight Track Log ✈ N6671X ✈ 27-Mar-2014 ✈ KGVL - KSHD

Flight Track Log - Related Links

Times and Time Zones

All times are in EDT time to prevent confusion due to time zone crossing. See the N6671X flight status page for this flight to view local times or setup timezone preferences in your user account.

Time Position Orientation Groundspeed Altitude Reporting Facility
EDT Latitude Longitude Course Direction KTS MPH feet Rate Location/Type
07:56PM 34.2761 -83.7672 62° Northeast 132 152 2,700  Level Atlanta Center
07:57PM 34.2947 -83.7244 62° Northeast 142 163 3,800 1,080 Climbing Atlanta Center
07:58PM 34.3217 -83.6892 47° Northeast 142 163 4,900 900 Climbing Atlanta Center
07:59PM 34.3550 -83.6514 43° Northeast 153 176 5,600 720 Climbing Atlanta Center
08:00PM 34.3800 -83.6033 58° Northeast 153 176 6,400 720 Climbing Atlanta Center
08:01PM 34.4089 -83.5606 51° Northeast 163 188 7,100 660 Climbing Atlanta Center
08:02PM 34.4422 -83.5175 47° Northeast 169 194 7,800 660 Climbing Atlanta Center
08:03PM 34.4753 -83.4642 53° Northeast 175 201 8,500 600 Climbing Atlanta Center
08:04PM 34.5022 -83.4136 57° Northeast 175 201 9,100 300 Climbing Atlanta Center
08:05PM 34.5292 -83.3581 60° Northeast 180 207 9,100  Level Atlanta Center
08:06PM 34.5642 -83.3072 50° Northeast 185 213 9,100  Level Atlanta Center
08:07PM 34.5975 -83.2564 51° Northeast 190 219 9,100  Level Atlanta Center
08:08PM 34.6389 -83.2131 41° Northeast 184 212 9,100  Level Atlanta Center
08:09PM 34.6719 -83.1597 53° Northeast 190 219 9,100  Level Atlanta Center
08:10PM 34.7028 -83.1064 55° Northeast 190 219 9,100  Level Atlanta Center
08:11PM 34.7400 -83.0531 50° Northeast 190 219 9,100  Level Atlanta Center
08:12PM 34.7728 -83.0019 52° Northeast 195 224 9,100  Level Atlanta Center
08:13PM 34.8078 -82.9483 52° Northeast 195 224 9,100  Level Atlanta Center
08:14PM 34.8408 -82.8947 53° Northeast 195 224 9,100  Level Atlanta Center
08:15PM 34.8736 -82.8436 52° Northeast 195 224 9,100  Level Atlanta Center
08:16PM 34.9128 -82.7925 47° Northeast 195 224 9,100  Level Atlanta Center
08:17PM 34.9519 -82.7464 44° Northeast 195 224 9,100  Level Atlanta Center
08:18PM 34.9889 -82.6950 49° Northeast 195 224 9,100 -60 Level Atlanta Center
08:24PM 35.2397 -82.3731 46° Northeast 198 228 9,000 -60 Descending Atlanta Center
08:25PM 35.2786 -82.3214 47° Northeast 198 228 9,000  Level Atlanta Center
08:26PM 35.3153 -82.2725 47° Northeast 221 254 9,100  Climbing Atlanta Center
08:27PM 35.2888 -82.2516 45° Northeast  Level FlightAware Approximate
08:27PM 35.3522 -82.2231 47° Northeast 221 254 9,100  Level Atlanta Center
08:28PM 35.3268 -82.2042 46° Northeast  Level FlightAware Approximate
08:28PM 35.3889 -82.1714 49° Northeast 208 239 9,100  Level Atlanta Center
08:29PM 35.4278 -82.1194 47° Northeast 198 228 9,100  Level Atlanta Center
08:30PM 35.4667 -82.0703 46° Northeast 198 228 9,100  Level Atlanta Center
08:31PM 35.5056 -82.0208 46° Northeast 198 228 9,100  Level Atlanta Center
08:32PM 35.5422 -81.9689 49° Northeast 198 228 9,100  Level Atlanta Center
08:33PM 35.5811 -81.9219 44° Northeast 198 228 9,100  Level Atlanta Center
08:34PM 35.6242 -81.8800 38° Northeast 198 228 9,100  Level Atlanta Center
08:35PM 35.6672 -81.8328 42° Northeast 193 222 9,100  Level Atlanta Center
08:36PM 35.7081 -81.7881 42° Northeast 193 222 9,100 -60 Level Atlanta Center
08:37PM 35.7511 -81.7436 40° Northeast 193 222 9,000 -60 Descending Atlanta Center
08:38PM 35.7858 -81.7042 43° Northeast 193 222 9,000  Level Atlanta Center
08:39PM 35.8306 -81.6542 42° Northeast 193 222 9,000  Level Atlanta Center
08:40PM 35.8736 -81.6094 40° Northeast 193 222 9,000  Level Atlanta Center
08:41PM 35.9144 -81.5644 42° Northeast 193 222 9,100  Climbing Atlanta Center
08:42PM 35.9572 -81.5169 42° Northeast 193 222 9,100 -60 Level Atlanta Center
08:43PM 35.9981 -81.4747 40° Northeast 193 222 9,000 -60 Descending Atlanta Center
08:44PM 36.0389 -81.4272 43° Northeast 193 222 9,000 -60 Level Atlanta Center
08:45PM 36.0817 -81.3794 42° Northeast 193 222 8,900 -60 Descending Atlanta Center
08:46PM 36.1244 -81.3344 40° Northeast 193 222 8,900  Level Atlanta Center
08:47PM 36.1672 -81.2894 40° Northeast 193 222 9,000  Climbing Atlanta Center
08:48PM 36.2078 -81.2442 42° Northeast 193 222 9,000  Level Atlanta Center
08:49PM 36.2506 -81.1964 42° Northeast 193 222 9,100  Climbing Atlanta Center
08:50PM 36.2914 -81.1511 42° Northeast 193 222 9,100  Level Atlanta Center
08:51PM 36.3319 -81.1033 43° Northeast 198 228 9,100  Level Atlanta Center
08:52PM 36.3767 -81.0553 41° Northeast 198 228 9,100 -60 Level Atlanta Center
08:53PM 36.4172 -81.0125 40° Northeast 198 228 9,000  Descending Atlanta Center
08:54PM 36.4578 -80.9644 44° Northeast 198 228 9,100  Climbing Atlanta Center
08:55PM 36.4983 -80.9164 44° Northeast 198 228 9,100  Level Atlanta Center
08:56PM 36.5408 -80.8708 41° Northeast 198 228 9,100  Level Atlanta Center
08:57PM 36.5814 -80.8253 42° Northeast 198 228 9,100  Level Atlanta Center
08:58PM 36.6239 -80.7797 41° Northeast 198 228 9,100  Level Atlanta Center
08:59PM 36.6667 -80.7339 41° Northeast 198 228 9,100  Level Atlanta Center
09:00PM 36.7069 -80.6856 44° Northeast 198 228 9,100  Level Atlanta Center
09:01PM 36.7475 -80.6397 42° Northeast 193 222 9,100  Level Atlanta Center
09:02PM 36.7919 -80.5914 41° Northeast 193 222 9,100  Level Atlanta Center
09:03PM 36.8322 -80.5456 42° Northeast 188 216 9,100  Level Atlanta Center
09:04PM 36.8728 -80.4994 42° Northeast 188 216 9,100  Level Atlanta Center
09:07PM 36.9797 -80.3994 46° Northeast 198 228 9,100  Level Washington Center
09:11PM 37.1569 -80.1889 44° Northeast 201 231 9,100  Level Washington Center
09:15PM 37.3181 -80.0053 44° Northeast 182 209 9,100  Level Washington Center
09:16PM 37.3176 -79.9927 44° Northeast  Level FlightAware Approximate
09:19PM 37.4731 -79.8206 43° Northeast 196 226 9,100  Level Washington Center
09:20PM 37.4795 -79.7981 44° Northeast  Level FlightAware Approximate
09:21PM 37.5839 -79.6931 42° Northeast 221 254 9,100  Level Washington Center
09:22PM 37.6228 -79.6508 41° Northeast 234 269 9,000  Descending Washington Center
09:23PM 37.6664 -79.5981 44° Northeast 208 239 9,100  Climbing Washington Center
09:24PM 37.7053 -79.5553 41° Northeast 196 226 9,100 -180 Level Washington Center
09:25PM 37.7528 -79.5053 40° Northeast 201 231 8,800 -420 Descending Washington Center
09:26PM 37.7961 -79.4525 44° Northeast 201 231 8,300 -480 Descending Washington Center
09:27PM 37.8439 -79.3997 41° Northeast 207 238 7,900 -480 Descending Washington Center
09:28PM 37.8828 -79.3542 43° Northeast 212 244 7,400 -480 Descending Washington Center
09:29PM 37.9283 -79.2986 44° Northeast 218 251 7,000 -240 Descending Washington Center
09:30PM 37.9717 -79.2481 43° Northeast 218 251 7,000  Level Washington Center
09:31PM 38.0192 -79.1922 43° Northeast 218 251 7,000  Level Washington Center
09:32PM 38.0625 -79.1417 43° Northeast 218 251 7,000  Level Washington Center
09:33PM 38.1056 -79.0908 43° Northeast 218 251 7,000  Level Washington Center
09:34PM 38.1142 -79.0808 42° Northeast 218 251 7,000  Level Washington Center